Time;durP1;ratioP1;P1;durP2;ratioP2;P2;SDS_P1;SDS_P2;PMS_P1;PMS_P2;Temp;Humidity;BMP_temperature;BMP_pressure;BME280_temperature;BME280_humidity;BME280_pressure;Samples;Min_cycle;Max_cycle;Signal;HPM_P1;HPM_P2
2022/12/27 00:00:26;;;;;;;3.13;2.70;;;;;;;;;;5053132;28;20248;-78
2022/12/27 00:02:53;;;;;;;2.73;2.53;;;;;;;;;;5055198;28;20240;-78
2022/12/27 00:05:20;;;;;;;4.43;3.07;;;;;;;;;;5054525;28;20225;-78
2022/12/27 00:07:47;;;;;;;3.50;2.70;;;;;;;;;;5054604;28;20266;-78
2022/12/27 00:10:14;;;;;;;5.93;2.70;;;;;;;;;;5053642;28;20547;-78
2022/12/27 00:12:42;;;;;;;2.80;2.60;;;;;;;;;;5054849;28;20209;-78
2022/12/27 00:15:10;;;;;;;3.70;2.90;;;;;;;;;;5054178;28;20238;-78
2022/12/27 00:17:37;;;;;;;3.83;2.60;;;;;;;;;;5054345;28;20693;-78
2022/12/27 00:20:04;;;;;;;4.50;2.53;;;;;;;;;;5050150;28;20206;-79
2022/12/27 00:22:31;;;;;;;3.07;2.77;;;;;;;;;;5054599;28;20202;-78
2022/12/27 00:24:58;;;;;;;2.90;2.53;;;;;;;;;;5054174;28;20579;-78
2022/12/27 00:27:25;;;;;;;4.43;3.13;;;;;;;;;;5054009;28;20233;-78
2022/12/27 00:29:54;;;;;;;2.10;2.00;;;;;;;;;;5052889;28;20209;-78
2022/12/27 00:32:21;;;;;;;3.17;2.43;;;;;;;;;;5053814;28;20241;-78
2022/12/27 00:34:48;;;;;;;2.87;2.60;;;;;;;;;;5054009;28;20244;-78
2022/12/27 00:37:15;;;;;;;3.20;2.30;;;;;;;;;;5053695;28;20231;-78
2022/12/27 00:39:42;;;;;;;2.67;2.00;;;;;;;;;;5053151;28;20259;-78
2022/12/27 00:42:09;;;;;;;3.10;2.53;;;;;;;;;;5053501;28;20250;-78
2022/12/27 00:44:36;;;;;;;6.40;2.47;;;;;;;;;;5053919;28;20286;-78
2022/12/27 00:47:05;;;;;;;3.50;2.30;;;;;;;;;;5052890;28;20229;-78
2022/12/27 00:49:32;;;;;;;2.30;2.10;;;;;;;;;;5053777;28;20393;-78
2022/12/27 00:51:59;;;;;;;3.73;2.40;;;;;;;;;;5053402;28;20230;-78
2022/12/27 00:54:26;;;;;;;2.47;2.27;;;;;;;;;;5053436;28;20287;-78
2022/12/27 00:56:53;;;;;;;3.50;2.53;;;;;;;;;;5049244;28;20234;-78
2022/12/27 00:59:20;;;;;;;3.23;2.40;;;;;;;;;;5039956;28;20209;-77
2022/12/27 01:01:47;;;;;;;2.43;2.23;;;;;;;;;;5028578;28;20230;-77
2022/12/27 01:04:16;;;;;;;2.47;2.20;;;;;;;;;;5033669;28;20231;-77
2022/12/27 01:06:43;;;;;;;2.47;2.27;;;;;;;;;;5032867;28;20239;-77
2022/12/27 01:09:10;;;;;;;2.23;2.03;;;;;;;;;;5042292;28;20205;-77
2022/12/27 01:11:37;;;;;;;3.70;2.40;;;;;;;;;;5033085;28;20622;-77
2022/12/27 01:14:04;;;;;;;5.03;2.37;;;;;;;;;;5033530;28;20637;-77
2022/12/27 01:16:32;;;;;;;2.10;2.00;;;;;;;;;;5033328;28;20250;-77
2022/12/27 01:19:00;;;;;;;2.43;2.23;;;;;;;;;;5033087;28;20361;-77
2022/12/27 01:21:29;;;;;;;2.17;2.07;;;;;;;;;;5032956;28;20732;-77
2022/12/27 01:23:56;;;;;;;5.20;2.20;;;;;;;;;;5033157;28;20236;-77
2022/12/27 01:26:24;;;;;;;2.97;2.40;;;;;;;;;;5033075;28;20237;-77
2022/12/27 01:28:51;;;;;;;2.00;1.90;;;;;;;;;;5032869;28;20299;-77
2022/12/27 01:31:19;;;;;;;2.20;2.00;;;;;;;;;;5032903;28;20244;-77
2022/12/27 01:33:46;;;;;;;2.33;2.23;;;;;;;;;;5033222;28;20644;-77
2022/12/27 01:36:15;;;;;;;2.43;2.10;;;;;;;;;;5041565;28;20254;-77
2022/12/27 01:38:43;;;;;;;6.97;2.53;;;;;;;;;;5037670;28;20206;-77
2022/12/27 01:43:59;;;;;;;3.40;2.43;;;;;;;;;;5051387;28;20359;-77
2022/12/27 01:46:26;;;;;;;3.67;2.10;;;;;;;;;;5052459;28;20713;-77
2022/12/27 01:48:53;;;;;;;2.70;2.10;;;;;;;;;;5052684;28;20266;-77
2022/12/27 01:51:20;;;;;;;2.30;1.60;;;;;;;;;;5052351;28;20243;-77
2022/12/27 01:53:50;;;;;;;2.53;1.87;;;;;;;;;;5052559;28;20603;-77
2022/12/27 01:56:19;;;;;;;2.07;1.97;;;;;;;;;;5051934;28;20241;-77
2022/12/27 01:58:48;;;;;;;2.63;2.23;;;;;;;;;;5052523;28;20206;-77
2022/12/27 02:01:16;;;;;;;7.27;4.30;;;;;;;;;;5052409;28;20234;-77
2022/12/27 02:03:45;;;;;;;13.67;7.30;;;;;;;;;;5030716;28;20231;-77
2022/12/27 02:06:13;;;;;;;6.23;4.30;;;;;;;;;;5026645;28;20364;-77
2022/12/27 02:08:44;;;;;;;5.37;4.40;;;;;;;;;;5031300;28;20229;-77
2022/12/27 02:11:13;;;;;;;6.97;4.70;;;;;;;;;;5014930;28;20235;-77
2022/12/27 02:13:42;;;;;;;3.17;2.53;;;;;;;;;;5028236;28;20205;-77
2022/12/27 02:16:13;;;;;;;4.03;3.17;;;;;;;;;;5031882;28;20288;-77
2022/12/27 02:18:40;;;;;;;7.10;4.03;;;;;;;;;;5048174;28;20205;-77
2022/12/27 02:21:30;;;;;;;4.60;3.30;;;;;;;;;;5051787;28;20238;-77
2022/12/27 02:24:11;;;;;;;2.93;2.40;;;;;;;;;;5051491;28;20221;-77
2022/12/27 02:26:51;;;;;;;2.50;2.30;;;;;;;;;;5051819;28;20233;-77
2022/12/27 02:29:33;;;;;;;4.50;2.23;;;;;;;;;;5052071;28;20265;-77
2022/12/27 02:32:04;;;;;;;2.30;2.10;;;;;;;;;;5048194;28;20289;-77
2022/12/27 02:34:35;;;;;;;4.87;2.53;;;;;;;;;;5050269;28;20272;-77
2022/12/27 02:37:05;;;;;;;4.30;2.80;;;;;;;;;;5031732;28;20592;-77
2022/12/27 02:39:35;;;;;;;2.47;2.37;;;;;;;;;;5031823;28;20264;-77
2022/12/27 02:53:18;;;;;;;3.40;2.00;;;;;;;;;;5031675;28;20318;-77
2022/12/27 02:58:45;;;;;;;2.63;1.97;;;;;;;;;;5031621;28;20309;-77
2022/12/27 03:04:11;;;;;;;3.63;2.20;;;;;;;;;;5031921;28;20294;-77
2022/12/27 03:06:47;;;;;;;7.03;2.17;;;;;;;;;;5047373;28;20229;-77
2022/12/27 03:17:37;;;;;;;3.13;2.40;;;;;;;;;;5011441;28;20710;-77
2022/12/27 03:25:40;;;;;;;6.83;2.37;;;;;;;;;;5020339;28;20726;-77
2022/12/27 03:33:42;;;;;;;6.57;2.53;;;;;;;;;;5032611;28;20209;-77
2022/12/27 03:39:02;;;;;;;2.40;2.00;;;;;;;;;;5023091;28;20205;-77
2022/12/27 03:44:26;;;;;;;2.07;1.97;;;;;;;;;;5031296;28;20238;-76
2022/12/27 03:46:54;;;;;;;3.73;2.50;;;;;;;;;;5011648;28;20246;-76
2022/12/27 03:49:24;;;;;;;7.63;2.40;;;;;;;;;;5011405;28;20618;-76
2022/12/27 03:51:55;;;;;;;4.23;2.30;;;;;;;;;;5010939;28;20238;-76
2022/12/27 03:54:25;;;;;;;2.43;2.23;;;;;;;;;;5011575;28;20686;-76
2022/12/27 03:56:53;;;;;;;4.73;2.60;;;;;;;;;;5030269;28;20230;-77
2022/12/27 03:59:20;;;;;;;3.20;2.20;;;;;;;;;;5013633;28;20337;-76
2022/12/27 04:01:47;;;;;;;3.07;2.73;;;;;;;;;;5013033;28;20277;-76
2022/12/27 04:04:14;;;;;;;3.30;2.07;;;;;;;;;;5012863;28;20703;-76
2022/12/27 04:06:41;;;;;;;3.13;2.80;;;;;;;;;;5013194;28;20252;-76
2022/12/27 04:36:38;;;;;;;3.47;3.00;;;;;;;;;;5014570;28;20273;-76
2022/12/27 04:39:05;;;;;;;9.67;2.50;;;;;;;;;;5014260;28;20707;-77
2022/12/27 04:55:19;;;;;;;3.93;2.87;;;;;;;;;;5014278;28;20222;-77
2022/12/27 04:57:48;;;;;;;3.20;2.60;;;;;;;;;;5013952;28;20207;-76
2022/12/27 05:03:01;;;;;;;9.17;2.90;;;;;;;;;;5014305;28;20334;-76
2022/12/27 05:05:28;;;;;;;5.87;3.30;;;;;;;;;;5013732;28;20231;-76
2022/12/27 05:16:17;;;;;;;5.83;3.90;;;;;;;;;;5013334;28;20242;-76
2022/12/27 05:18:44;;;;;;;8.13;3.60;;;;;;;;;;5013834;28;20211;-76
2022/12/27 05:21:11;;;;;;;3.87;3.40;;;;;;;;;;5013428;28;20238;-76
2022/12/27 05:26:24;;;;;;;3.67;2.83;;;;;;;;;;5013295;28;20671;-76
2022/12/27 05:28:53;;;;;;;6.63;3.10;;;;;;;;;;5013294;28;20586;-76
2022/12/27 05:31:20;;;;;;;4.77;2.87;;;;;;;;;;5011807;28;20239;-76
2022/12/27 05:33:47;;;;;;;4.70;2.70;;;;;;;;;;5012919;28;20668;-76
2022/12/27 05:36:14;;;;;;;5.00;2.93;;;;;;;;;;5012759;28;20242;-76
2022/12/27 05:38:41;;;;;;;5.40;3.50;;;;;;;;;;5013075;28;20203;-77
2022/12/27 05:41:08;;;;;;;4.37;2.97;;;;;;;;;;5004473;28;20235;-77
2022/12/27 05:43:36;;;;;;;6.03;3.27;;;;;;;;;;5013343;28;20664;-76
2022/12/27 05:46:05;;;;;;;9.20;3.37;;;;;;;;;;5012893;28;20227;-76
2022/12/27 05:48:32;;;;;;;4.10;3.07;;;;;;;;;;4996860;28;20203;-76
2022/12/27 05:50:59;;;;;;;7.40;3.17;;;;;;;;;;4993216;28;20707;-76
2022/12/27 05:53:26;;;;;;;10.43;3.83;;;;;;;;;;4993943;28;20212;-76
2022/12/27 05:55:56;;;;;;;6.13;3.77;;;;;;;;;;4993144;28;20704;-76
2022/12/27 05:58:23;;;;;;;10.47;5.40;;;;;;;;;;4993544;28;20216;-76
2022/12/27 06:00:50;;;;;;;5.20;3.53;;;;;;;;;;4993000;28;20236;-76
2022/12/27 06:03:19;;;;;;;6.13;3.80;;;;;;;;;;4993635;28;20262;-76
2022/12/27 06:05:46;;;;;;;6.40;3.43;;;;;;;;;;4992442;28;20238;-75
2022/12/27 06:08:13;;;;;;;5.10;3.17;;;;;;;;;;4992034;28;20212;-76
2022/12/27 06:10:40;;;;;;;11.77;3.90;;;;;;;;;;4992946;28;20243;-75
2022/12/27 06:13:07;;;;;;;7.37;3.63;;;;;;;;;;4993094;28;20660;-75
2022/12/27 06:15:34;;;;;;;3.73;2.73;;;;;;;;;;4992712;28;20251;-75
2022/12/27 06:18:02;;;;;;;4.93;3.30;;;;;;;;;;4992713;28;20212;-75
2022/12/27 06:20:30;;;;;;;7.10;3.80;;;;;;;;;;4992796;28;20258;-75
2022/12/27 06:22:59;;;;;;;5.37;3.27;;;;;;;;;;4993083;28;20236;-75
2022/12/27 06:25:26;;;;;;;7.87;3.20;;;;;;;;;;4992436;28;20721;-75
2022/12/27 06:27:53;;;;;;;3.13;2.87;;;;;;;;;;4992591;28;20204;-75
2022/12/27 06:30:20;;;;;;;4.93;3.20;;;;;;;;;;4992463;28;20200;-75
2022/12/27 06:32:48;;;;;;;6.40;3.57;;;;;;;;;;4992862;28;20266;-75
2022/12/27 06:35:15;;;;;;;4.50;2.90;;;;;;;;;;4992886;28;20231;-75
2022/12/27 06:37:44;;;;;;;3.00;2.80;;;;;;;;;;5012359;28;20211;-75
2022/12/27 06:40:11;;;;;;;7.40;3.63;;;;;;;;;;5011795;28;20567;-75
2022/12/27 06:42:38;;;;;;;4.60;3.17;;;;;;;;;;5012402;28;20215;-74
2022/12/27 06:45:08;;;;;;;6.30;3.30;;;;;;;;;;5011611;28;20231;-75
2022/12/27 06:47:35;;;;;;;8.63;3.30;;;;;;;;;;5012165;28;20211;-74
2022/12/27 06:50:02;;;;;;;4.53;3.43;;;;;;;;;;5011885;28;20214;-74
2022/12/27 06:52:29;;;;;;;5.17;3.13;;;;;;;;;;5011551;28;20591;-74
2022/12/27 06:54:57;;;;;;;7.70;4.03;;;;;;;;;;5011984;28;20223;-74
2022/12/27 06:57:24;;;;;;;11.90;4.30;;;;;;;;;;5011566;28;20706;-74
2022/12/27 06:59:51;;;;;;;10.13;4.70;;;;;;;;;;5011781;28;20207;-74
2022/12/27 07:02:19;;;;;;;7.77;4.03;;;;;;;;;;5011586;28;20242;-75
2022/12/27 07:04:48;;;;;;;12.87;6.07;;;;;;;;;;4995825;28;20232;-74
2022/12/27 07:07:15;;;;;;;10.50;6.47;;;;;;;;;;4991958;28;20240;-75
2022/12/27 07:09:42;;;;;;;10.83;5.43;;;;;;;;;;4992078;28;20208;-75
2022/12/27 07:12:11;;;;;;;12.63;4.97;;;;;;;;;;5002204;28;20231;-75
2022/12/27 07:14:38;;;;;;;9.67;4.67;;;;;;;;;;5006382;28;20687;-76
2022/12/27 07:17:05;;;;;;;8.60;5.23;;;;;;;;;;5011324;28;20263;-75
2022/12/27 07:19:32;;;;;;;7.90;4.57;;;;;;;;;;5011558;28;20203;-75
2022/12/27 07:21:59;;;;;;;9.30;4.27;;;;;;;;;;5011293;28;20242;-75
2022/12/27 07:24:26;;;;;;;6.27;3.60;;;;;;;;;;5011876;28;20269;-75
2022/12/27 07:26:53;;;;;;;5.53;3.70;;;;;;;;;;5011148;28;20618;-75
2022/12/27 07:29:22;;;;;;;6.90;3.93;;;;;;;;;;5010652;28;20206;-75
2022/12/27 07:31:49;;;;;;;7.40;3.77;;;;;;;;;;4991818;28;20294;-75
2022/12/27 07:34:16;;;;;;;5.43;3.73;;;;;;;;;;4991994;28;20223;-75
2022/12/27 07:36:43;;;;;;;4.23;3.77;;;;;;;;;;4991553;28;20266;-75
2022/12/27 07:39:10;;;;;;;5.30;4.10;;;;;;;;;;4991794;28;20579;-74
2022/12/27 07:41:37;;;;;;;5.73;3.27;;;;;;;;;;4991841;28;20236;-74
2022/12/27 07:44:06;;;;;;;7.77;3.67;;;;;;;;;;4992118;28;20332;-75
2022/12/27 07:46:34;;;;;;;10.67;4.23;;;;;;;;;;4991716;28;20658;-75
2022/12/27 07:49:01;;;;;;;9.07;4.77;;;;;;;;;;4991724;28;20212;-74
2022/12/27 07:51:29;;;;;;;5.73;3.73;;;;;;;;;;4991750;28;20275;-75
2022/12/27 07:53:56;;;;;;;7.70;3.90;;;;;;;;;;4992442;28;20594;-75
2022/12/27 07:56:24;;;;;;;6.67;3.50;;;;;;;;;;4991786;28;20614;-75
2022/12/27 07:58:51;;;;;;;6.93;3.63;;;;;;;;;;4991606;28;20208;-75
2022/12/27 08:01:20;;;;;;;11.40;3.63;;;;;;;;;;4991580;28;20240;-75
2022/12/27 08:03:49;;;;;;;6.20;3.40;;;;;;;;;;5011224;28;20203;-75
2022/12/27 08:06:21;;;;;;;5.77;3.60;;;;;;;;;;5012274;28;20650;-77
2022/12/27 08:08:48;;;;;;;5.17;3.50;;;;;;;;;;4995407;28;20215;-75
2022/12/27 08:11:15;;;;;;;8.17;3.93;;;;;;;;;;5012913;28;20238;-74
2022/12/27 08:13:42;;;;;;;6.97;3.57;;;;;;;;;;4995554;28;20243;-75
2022/12/27 08:16:12;;;;;;;4.50;3.47;;;;;;;;;;4995032;28;20609;-75
2022/12/27 08:18:39;;;;;;;7.03;4.17;;;;;;;;;;5007082;28;20207;-76
2022/12/27 08:21:07;;;;;;;6.97;4.53;;;;;;;;;;5014573;28;20235;-75
2022/12/27 08:23:34;;;;;;;7.03;4.17;;;;;;;;;;4996478;28;20200;-75
2022/12/27 08:26:01;;;;;;;4.77;3.60;;;;;;;;;;5014188;28;20289;-75
2022/12/27 08:28:30;;;;;;;8.90;4.00;;;;;;;;;;5011525;28;20204;-75
2022/12/27 08:30:57;;;;;;;8.90;3.90;;;;;;;;;;5005556;28;20696;-75
2022/12/27 08:33:25;;;;;;;8.07;3.93;;;;;;;;;;5010437;28;20207;-74
2022/12/27 08:35:52;;;;;;;7.30;3.50;;;;;;;;;;5013605;28;20239;-76
2022/12/27 08:38:21;;;;;;;7.33;3.60;;;;;;;;;;5009507;28;20676;-75
2022/12/27 08:40:48;;;;;;;10.00;4.17;;;;;;;;;;4994647;28;20243;-75
2022/12/27 08:43:15;;;;;;;4.40;3.23;;;;;;;;;;5005994;28;20209;-75
2022/12/27 08:45:42;;;;;;;8.47;4.77;;;;;;;;;;5014103;28;20244;-75
2022/12/27 08:48:09;;;;;;;9.13;5.20;;;;;;;;;;5014361;28;20222;-75
2022/12/27 08:50:36;;;;;;;7.30;5.00;;;;;;;;;;5013944;28;20239;-75
2022/12/27 08:53:04;;;;;;;8.87;4.57;;;;;;;;;;5014631;28;20261;-75
2022/12/27 08:55:33;;;;;;;8.87;4.17;;;;;;;;;;5013961;28;20595;-75
2022/12/27 08:58:00;;;;;;;7.97;4.67;;;;;;;;;;5014064;28;20215;-76
2022/12/27 09:00:28;;;;;;;7.90;4.33;;;;;;;;;;5014139;28;20232;-76
2022/12/27 09:02:55;;;;;;;8.00;3.93;;;;;;;;;;5014021;28;20199;-76
2022/12/27 09:05:23;;;;;;;15.20;5.70;;;;;;;;;;5013382;28;20270;-75
2022/12/27 09:07:50;;;;;;;14.27;5.37;;;;;;;;;;5013661;28;20969;-76
2022/12/27 09:10:18;;;;;;;4.77;3.83;;;;;;;;;;5013812;28;20200;-76
2022/12/27 09:12:46;;;;;;;5.63;3.57;;;;;;;;;;5013967;28;20203;-75
2022/12/27 09:15:13;;;;;;;7.53;4.03;;;;;;;;;;5013012;28;20236;-76
2022/12/27 09:17:41;;;;;;;9.40;4.80;;;;;;;;;;5013760;28;20669;-76
2022/12/27 09:20:11;;;;;;;13.60;4.77;;;;;;;;;;4997247;28;20210;-76
2022/12/27 09:22:38;;;;;;;8.77;5.07;;;;;;;;;;5013795;28;20214;-76
2022/12/27 09:25:05;;;;;;;5.20;3.77;;;;;;;;;;5013099;28;20219;-76
2022/12/27 09:27:32;;;;;;;9.10;4.77;;;;;;;;;;5013870;28;20224;-75
2022/12/27 09:30:01;;;;;;;8.10;4.17;;;;;;;;;;5013113;28;20199;-77
2022/12/27 09:32:28;;;;;;;8.50;4.53;;;;;;;;;;5006610;28;20298;-76
2022/12/27 09:34:55;;;;;;;9.83;4.60;;;;;;;;;;5012758;28;20502;-76
2022/12/27 09:37:22;;;;;;;12.13;5.53;;;;;;;;;;5013629;28;20555;-75
2022/12/27 09:39:50;;;;;;;12.67;5.97;;;;;;;;;;5013503;28;20211;-75
2022/12/27 09:42:24;;;;;;;7.50;5.03;;;;;;;;;;5013313;28;20322;-78
2022/12/27 09:44:53;;;;;;;8.93;5.03;;;;;;;;;;5013045;28;20223;-75
2022/12/27 09:47:25;;;;;;;11.50;4.60;;;;;;;;;;5012886;28;20243;-75
2022/12/27 09:49:54;;;;;;;6.57;4.70;;;;;;;;;;5013386;28;20215;-75
2022/12/27 09:52:23;;;;;;;7.17;4.70;;;;;;;;;;5012962;28;20279;-75
2022/12/27 09:54:55;;;;;;;5.00;4.50;;;;;;;;;;5013435;28;20707;-75
2022/12/27 09:57:23;;;;;;;11.63;5.50;;;;;;;;;;5012929;28;20262;-75
2022/12/27 09:59:53;;;;;;;8.07;4.40;;;;;;;;;;5013170;28;20206;-75
2022/12/27 10:02:22;;;;;;;8.13;4.17;;;;;;;;;;5012755;28;20231;-75
2022/12/27 10:04:50;;;;;;;5.07;3.60;;;;;;;;;;5013105;28;20236;-75
2022/12/27 10:07:21;;;;;;;7.47;4.37;;;;;;;;;;5012646;28;20239;-75
2022/12/27 10:09:52;;;;;;;7.77;4.93;;;;;;;;;;5013429;28;20483;-75
2022/12/27 10:12:29;;;;;;;6.27;3.83;;;;;;;;;;5012408;28;20236;-75
2022/12/27 10:15:00;;;;;;;8.30;4.60;;;;;;;;;;5012992;28;20233;-75
2022/12/27 10:17:36;;;;;;;10.10;4.87;;;;;;;;;;5012757;28;20221;-75
2022/12/27 10:20:09;;;;;;;7.57;5.10;;;;;;;;;;5012390;28;20217;-76
2022/12/27 10:22:39;;;;;;;9.17;4.13;;;;;;;;;;4993514;28;20211;-75
2022/12/27 10:25:10;;;;;;;8.53;4.27;;;;;;;;;;4992828;28;20936;-76
2022/12/27 10:27:37;;;;;;;12.33;3.80;;;;;;;;;;4992284;28;20231;-75
2022/12/27 10:30:13;;;;;;;10.67;5.23;;;;;;;;;;4992663;28;20205;-76
2022/12/27 10:32:42;;;;;;;11.10;6.53;;;;;;;;;;4993274;28;20675;-75
2022/12/27 10:35:13;;;;;;;12.77;5.73;;;;;;;;;;4992378;28;20244;-75
2022/12/27 10:37:41;;;;;;;8.10;4.17;;;;;;;;;;4993089;28;20208;-75
2022/12/27 10:40:10;;;;;;;12.10;5.00;;;;;;;;;;4992639;28;20229;-76
2022/12/27 10:42:40;;;;;;;9.43;5.50;;;;;;;;;;4993144;28;20199;-75
2022/12/27 10:45:27;;;;;;;9.80;5.00;;;;;;;;;;4992416;28;20231;-76
2022/12/27 10:47:56;;;;;;;7.07;4.50;;;;;;;;;;4992290;28;20289;-75
2022/12/27 10:50:24;;;;;;;11.60;6.93;;;;;;;;;;4993212;28;20235;-76
2022/12/27 10:52:52;;;;;;;6.73;4.07;;;;;;;;;;5012322;28;20290;-76
2022/12/27 10:55:31;;;;;;;9.50;4.90;;;;;;;;;;5012022;28;20234;-75
2022/12/27 10:57:58;;;;;;;7.20;4.20;;;;;;;;;;5012152;28;20679;-76
2022/12/27 11:00:26;;;;;;;8.57;4.90;;;;;;;;;;5011777;28;20279;-76
2022/12/27 11:02:54;;;;;;;9.37;4.40;;;;;;;;;;5012282;28;20218;-76
2022/12/27 11:05:23;;;;;;;10.53;4.50;;;;;;;;;;5011761;28;20237;-76
2022/12/27 11:07:50;;;;;;;5.87;4.67;;;;;;;;;;5011617;28;20265;-75
2022/12/27 11:10:18;;;;;;;5.13;4.33;;;;;;;;;;5011811;28;20207;-76
2022/12/27 11:12:58;;;;;;;7.27;4.20;;;;;;;;;;5011862;28;20206;-75
2022/12/27 11:15:25;;;;;;;10.50;4.03;;;;;;;;;;5011675;28;20243;-77
2022/12/27 11:17:53;;;;;;;4.67;3.57;;;;;;;;;;5011610;28;20214;-75
2022/12/27 11:20:23;;;;;;;6.20;4.40;;;;;;;;;;5011182;28;20242;-75
2022/12/27 11:22:52;;;;;;;7.33;3.80;;;;;;;;;;5012099;28;20207;-75
2022/12/27 11:25:19;;;;;;;8.93;5.50;;;;;;;;;;5011677;28;20238;-75
2022/12/27 11:27:47;;;;;;;6.57;3.60;;;;;;;;;;5011418;28;20587;-75
2022/12/27 11:30:22;;;;;;;7.60;4.13;;;;;;;;;;5012606;28;20218;-76
2022/12/27 11:32:49;;;;;;;4.70;3.80;;;;;;;;;;5016117;28;20249;-75
2022/12/27 11:35:18;;;;;;;10.67;7.07;;;;;;;;;;5029099;28;20248;-76
2022/12/27 11:37:46;;;;;;;8.07;5.33;;;;;;;;;;5014956;28;20199;-76
2022/12/27 11:40:22;;;;;;;6.33;4.80;;;;;;;;;;5017928;28;20216;-76
2022/12/27 11:42:51;;;;;;;6.57;4.93;;;;;;;;;;5017544;28;20211;-76
2022/12/27 11:45:22;;;;;;;3.87;3.57;;;;;;;;;;5016839;28;20236;-76
2022/12/27 11:47:52;;;;;;;11.33;5.70;;;;;;;;;;5016049;28;20226;-75
2022/12/27 11:50:33;;;;;;;9.33;4.90;;;;;;;;;;5016336;28;20211;-76
2022/12/27 11:53:15;;;;;;;12.53;5.37;;;;;;;;;;5016165;28;20203;-76
2022/12/27 11:55:50;;;;;;;3.70;3.37;;;;;;;;;;5015394;28;20238;-75
2022/12/27 11:58:35;;;;;;;6.33;4.20;;;;;;;;;;5015806;28;20260;-75
2022/12/27 12:01:15;;;;;;;4.20;3.80;;;;;;;;;;5015469;28;20748;-75
2022/12/27 12:03:51;;;;;;;4.77;3.87;;;;;;;;;;5015859;28;20678;-74
2022/12/27 12:06:21;;;;;;;4.73;3.57;;;;;;;;;;5005172;28;20649;-75
2022/12/27 12:09:15;;;;;;;10.90;3.83;;;;;;;;;;5014753;28;20195;-75
2022/12/27 12:11:50;;;;;;;5.43;3.47;;;;;;;;;;5001534;28;20617;-75
2022/12/27 12:14:35;;;;;;;9.90;3.60;;;;;;;;;;5004096;28;20664;-77
2022/12/27 12:17:16;;;;;;;6.27;3.60;;;;;;;;;;5002085;28;20227;-77
2022/12/27 12:19:53;;;;;;;5.40;4.90;;;;;;;;;;5012045;28;20652;-76
2022/12/27 12:22:35;;;;;;;9.50;4.27;;;;;;;;;;5014776;28;20231;-76
2022/12/27 12:25:16;;;;;;;8.13;3.90;;;;;;;;;;5015795;28;20242;-76
2022/12/27 12:27:51;;;;;;;5.00;3.60;;;;;;;;;;5014808;28;20243;-76
2022/12/27 12:30:27;;;;;;;3.73;3.43;;;;;;;;;;5014451;28;20560;-76
2022/12/27 12:33:07;;;;;;;5.63;3.77;;;;;;;;;;5016586;28;20246;-74
2022/12/27 12:35:44;;;;;;;9.17;4.30;;;;;;;;;;5010119;28;20237;-75
2022/12/27 12:38:17;;;;;;;5.77;4.07;;;;;;;;;;5015118;28;20207;-75
2022/12/27 12:40:51;;;;;;;11.80;4.10;;;;;;;;;;5014580;28;20235;-75
2022/12/27 12:43:30;;;;;;;5.43;4.00;;;;;;;;;;5002067;28;20224;-76
2022/12/27 12:46:02;;;;;;;5.47;3.80;;;;;;;;;;5012875;28;20246;-77
2022/12/27 12:48:42;;;;;;;5.10;3.63;;;;;;;;;;5014577;28;20231;-77
2022/12/27 12:51:16;;;;;;;4.00;3.63;;;;;;;;;;5013725;28;20242;-76
2022/12/27 12:53:51;;;;;;;4.87;3.53;;;;;;;;;;5014926;28;20207;-76
2022/12/27 12:56:29;;;;;;;7.23;3.97;;;;;;;;;;5014267;28;20239;-76
2022/12/27 12:59:06;;;;;;;9.07;3.90;;;;;;;;;;5014203;28;20211;-77
2022/12/27 13:01:43;;;;;;;7.73;4.00;;;;;;;;;;5014019;28;20246;-76
2022/12/27 13:04:27;;;;;;;5.57;4.20;;;;;;;;;;5014592;28;20211;-76
2022/12/27 13:07:20;;;;;;;8.77;4.47;;;;;;;;;;5000825;28;20242;-76
2022/12/27 13:10:05;;;;;;;8.17;4.40;;;;;;;;;;5014157;28;20211;-76
2022/12/27 13:12:36;;;;;;;10.20;4.80;;;;;;;;;;5014243;28;20241;-76
2022/12/27 13:15:22;;;;;;;7.60;4.00;;;;;;;;;;5013512;28;20734;-78
2022/12/27 13:17:55;;;;;;;10.27;3.73;;;;;;;;;;5013976;28;20222;-76
2022/12/27 13:20:31;;;;;;;5.20;3.37;;;;;;;;;;5013874;28;20654;-76
2022/12/27 13:23:03;;;;;;;6.97;3.47;;;;;;;;;;5014178;28;20250;-77
2022/12/27 13:25:37;;;;;;;7.40;3.73;;;;;;;;;;5013590;28;20238;-77
2022/12/27 13:28:12;;;;;;;11.10;3.73;;;;;;;;;;5013703;28;20681;-76
2022/12/27 13:30:43;;;;;;;8.33;3.80;;;;;;;;;;5013690;28;20277;-77
2022/12/27 13:33:15;;;;;;;6.90;3.93;;;;;;;;;;5013939;28;20652;-76
2022/12/27 13:35:46;;;;;;;9.33;3.60;;;;;;;;;;5013425;28;20231;-77
2022/12/27 13:38:24;;;;;;;5.27;4.00;;;;;;;;;;5013447;28;20215;-76
2022/12/27 13:41:06;;;;;;;4.40;3.67;;;;;;;;;;5004120;28;20314;-76
2022/12/27 13:43:46;;;;;;;7.23;3.57;;;;;;;;;;5014172;28;20606;-77
2022/12/27 13:46:34;;;;;;;8.47;4.17;;;;;;;;;;5013435;28;20235;-77
2022/12/27 13:49:07;;;;;;;2.80;2.60;;;;;;;;;;5006251;28;20291;-77
2022/12/27 13:51:41;;;;;;;7.07;4.03;;;;;;;;;;5006533;28;20245;-77
2022/12/27 13:54:33;;;;;;;7.77;3.70;;;;;;;;;;5013078;28;20203;-77
2022/12/27 13:57:06;;;;;;;4.50;3.50;;;;;;;;;;5012994;28;20246;-76
2022/12/27 13:59:44;;;;;;;7.67;3.63;;;;;;;;;;5013293;28;20215;-77
2022/12/27 14:02:38;;;;;;;8.93;3.50;;;;;;;;;;5011850;28;20239;-77
2022/12/27 14:05:18;;;;;;;6.17;3.13;;;;;;;;;;4966418;28;20234;-77
2022/12/27 14:07:52;;;;;;;6.97;3.73;;;;;;;;;;5012916;28;20562;-77
2022/12/27 14:10:27;;;;;;;4.47;3.00;;;;;;;;;;5012773;28;20698;-77
2022/12/27 14:12:58;;;;;;;8.30;3.80;;;;;;;;;;5013091;28;20191;-76
2022/12/27 14:15:29;;;;;;;6.13;3.23;;;;;;;;;;5012624;28;20239;-77
2022/12/27 14:18:05;;;;;;;4.77;3.43;;;;;;;;;;5012778;28;20215;-76
2022/12/27 14:20:44;;;;;;;5.23;3.00;;;;;;;;;;5012538;28;20226;-77
2022/12/27 14:23:21;;;;;;;7.03;3.47;;;;;;;;;;5013069;28;20227;-76
2022/12/27 14:26:07;;;;;;;4.00;3.20;;;;;;;;;;5012526;28;20285;-76
2022/12/27 14:28:48;;;;;;;7.30;4.13;;;;;;;;;;5012716;28;20750;-76
2022/12/27 14:31:22;;;;;;;8.00;4.27;;;;;;;;;;5012397;28;20234;-76
2022/12/27 14:34:17;;;;;;;7.00;3.77;;;;;;;;;;5012745;28;20702;-76
2022/12/27 14:36:57;;;;;;;8.93;4.47;;;;;;;;;;5012382;28;20239;-76
2022/12/27 14:39:33;;;;;;;8.27;4.13;;;;;;;;;;5012621;28;20218;-76
2022/12/27 14:42:15;;;;;;;14.03;4.60;;;;;;;;;;5010197;28;20226;-76
2022/12/27 14:45:13;;;;;;;5.67;3.63;;;;;;;;;;5012477;28;20208;-76
2022/12/27 14:47:55;;;;;;;6.00;3.10;;;;;;;;;;5012046;28;20230;-76
2022/12/27 14:50:38;;;;;;;6.07;2.90;;;;;;;;;;4995967;28;20207;-76
2022/12/27 14:53:24;;;;;;;5.63;3.10;;;;;;;;;;5011582;28;20259;-77
2022/12/27 14:55:56;;;;;;;5.67;3.57;;;;;;;;;;5012012;28;20651;-77
2022/12/27 14:58:38;;;;;;;6.73;3.40;;;;;;;;;;5012257;28;20207;-76
2022/12/27 15:01:09;;;;;;;5.43;3.13;;;;;;;;;;5011634;28;20612;-77
2022/12/27 15:04:00;;;;;;;5.03;3.00;;;;;;;;;;5012438;28;20203;-76
2022/12/27 15:06:42;;;;;;;10.17;3.83;;;;;;;;;;4992621;28;20243;-76
2022/12/27 15:09:12;;;;;;;11.43;5.07;;;;;;;;;;5008779;28;20226;-76
2022/12/27 15:11:50;;;;;;;6.77;3.83;;;;;;;;;;5011637;28;20234;-77
2022/12/27 15:14:26;;;;;;;4.30;3.10;;;;;;;;;;4992678;28;20212;-76
2022/12/27 15:16:57;;;;;;;6.53;4.10;;;;;;;;;;4992023;28;20286;-76
2022/12/27 15:19:33;;;;;;;7.33;3.63;;;;;;;;;;4996784;28;20808;-76
2022/12/27 15:22:06;;;;;;;8.17;3.80;;;;;;;;;;5011624;28;20245;-76
2022/12/27 15:24:40;;;;;;;9.23;3.87;;;;;;;;;;5012228;28;20206;-76
2022/12/27 15:27:14;;;;;;;6.83;4.47;;;;;;;;;;5011387;28;20553;-75
2022/12/27 15:29:47;;;;;;;9.27;4.20;;;;;;;;;;5011689;28;20203;-76
2022/12/27 15:32:24;;;;;;;12.87;5.60;;;;;;;;;;5011785;28;20246;-76
2022/12/27 15:34:57;;;;;;;11.10;5.70;;;;;;;;;;5011683;28;20733;-77
2022/12/27 15:37:43;;;;;;;12.83;5.77;;;;;;;;;;5073205;23;20253;-77
2022/12/27 15:40:22;;;;;;;12.37;5.13;;;;;;;;;;5031356;28;20207;-77
2022/12/27 15:42:54;;;;;;;11.87;5.00;;;;;;;;;;5037217;28;20260;-77
2022/12/27 15:45:41;;;;;;;5.87;3.43;;;;;;;;;;5068850;28;20247;-77
2022/12/27 15:48:24;;;;;;;6.60;3.90;;;;;;;;;;5043036;28;20225;-76
2022/12/27 15:50:56;;;;;;;6.07;4.13;;;;;;;;;;5051043;28;20233;-77
2022/12/27 15:53:35;;;;;;;13.30;5.10;;;;;;;;;;5065985;28;20201;-77
2022/12/27 15:56:20;;;;;;;8.47;5.00;;;;;;;;;;5051144;28;20241;-76
2022/12/27 15:59:22;;;;;;;6.23;4.43;;;;;;;;;;5051127;28;20210;-76
2022/12/27 16:01:49;;;;;;;5.67;4.23;;;;;;;;;;5056482;28;20238;-77
2022/12/27 16:04:31;;;;;;;6.77;4.70;;;;;;;;;;5055492;28;20207;-76
2022/12/27 16:06:58;;;;;;;8.17;4.30;;;;;;;;;;5048811;28;20302;-77
2022/12/27 16:09:37;;;;;;;9.83;4.80;;;;;;;;;;5050757;28;20641;-76
2022/12/27 16:12:05;;;;;;;10.60;4.90;;;;;;;;;;5050675;28;20268;-76
2022/12/27 16:14:35;;;;;;;9.50;6.00;;;;;;;;;;5055960;28;20228;-77
2022/12/27 16:17:07;;;;;;;12.07;6.40;;;;;;;;;;5065232;28;20229;-77
2022/12/27 16:19:42;;;;;;;8.63;5.50;;;;;;;;;;5051594;28;20209;-77
2022/12/27 16:22:20;;;;;;;10.83;5.43;;;;;;;;;;5051187;28;20278;-78
2022/12/27 16:24:47;;;;;;;7.63;3.97;;;;;;;;;;5053225;28;20217;-77
2022/12/27 16:27:21;;;;;;;8.90;4.20;;;;;;;;;;5060903;28;20236;-77
2022/12/27 16:29:50;;;;;;;8.27;4.10;;;;;;;;;;5065495;28;20225;-78
2022/12/27 16:32:21;;;;;;;13.23;4.20;;;;;;;;;;5054843;28;20296;-78
2022/12/27 16:34:50;;;;;;;9.03;4.40;;;;;;;;;;5055523;28;20213;-77
2022/12/27 16:37:23;;;;;;;8.03;4.70;;;;;;;;;;5054310;28;20249;-79
2022/12/27 16:39:55;;;;;;;7.63;4.33;;;;;;;;;;5054323;28;20716;-77
2022/12/27 16:42:27;;;;;;;7.93;5.83;;;;;;;;;;5055210;28;20240;-77
2022/12/27 16:45:25;;;;;;;10.63;5.60;;;;;;;;;;5054963;28;20230;-78